Date,TemperatureHighF,TemperatureAvgF,TemperatureLowF,DewpointHighF,DewpointAvgF,DewpointLowF,HumidityHigh,HumidityAvg,HumidityLow,PressureMaxIn,PressureMinIn,WindSpeedMaxMPH,WindSpeedAvgMPH,GustSpeedMaxMPH,PrecipitationSumIn
2013-1-1,47.0,40.9,35.0,26.0,14.6,4.0,67,35,20,0.00,40.00,34,11,52,0.00
2013-1-2,54.0,45.6,40.0,17.0,6.8,-3.0,27,20,11,0.00,40.00,37,15,53,0.00
2013-1-3,58.0,48.2,40.0,11.0,3.9,-3.0,25,16,8,0.00,40.00,18,7,34,0.00
2013-1-4,55.0,45.7,39.0,16.0,5.1,-5.0,32,19,11,0.00,40.00,9,6,11,0.00
2013-1-5,57.0,47.0,39.0,23.0,10.6,-1.0,44,23,13,0.00,40.00,9,5,12,0.00
2013-1-6,43.0,38.4,33.0,39.0,27.4,6.0,99,71,22,0.00,40.00,10,5,20,0.00
2013-1-7,51.0,42.7,35.0,36.0,25.8,11.0,99,56,20,0.00,40.00,15,6,25,0.00
2013-1-8,62.0,53.9,44.0,30.0,19.1,6.0,42,26,17,0.00,40.00,8,5,11,0.00
2013-1-9,64.0,54.4,47.0,42.0,28.9,20.0,79,39,25,0.00,40.00,10,6,14,0.00
2013-1-10,52.0,37.2,30.0,39.0,33.3,20.0,99,89,30,0.00,40.00,14,8,29,0.00
2013-1-11,37.0,31.0,26.0,28.0,19.9,13.0,89,65,40,0.00,40.00,9,4,18,0.00
2013-1-12,41.0,33.2,27.0,28.0,17.4,7.0,95,56,27,0.00,40.00,10,4,16,0.00
2013-1-13,41.0,34.2,28.0,25.0,15.9,8.0,70,48,31,0.00,40.00,15,5,23,0.00
2013-1-14,39.0,33.8,27.0,14.0,0.6,-12.0,56,27,11,0.00,40.00,15,7,28,0.00
2013-1-15,51.0,42.1,29.0,17.0,9.7,-4.0,41,26,20,0.00,40.00,29,11,42,0.00
2013-1-16,58.0,50.3,41.0,22.0,16.3,13.0,34,26,20,0.00,40.00,40,14,56,0.00
2013-1-17,64.0,57.3,52.0,20.0,14.4,10.0,22,18,15,0.00,40.00,41,19,58,0.00
2013-1-18,67.0,59.0,51.0,21.0,14.0,7.0,25,17,12,0.00,40.00,21,6,31,0.00
2013-1-19,66.0,57.3,49.0,15.0,9.3,5.0,23,15,11,0.00,40.00,14,6,23,0.00
2013-1-20,66.0,57.2,50.0,16.0,7.4,2.0,19,14,9,0.00,40.00,10,6,21,0.00
2013-1-21,68.0,60.5,51.0,15.0,1.6,-7.0,17,9,6,0.00,40.00,22,10,35,0.00
2013-1-22,73.0,60.5,51.0,28.0,7.8,-7.0,30,13,6,0.00,40.00,10,6,15,0.00
2013-1-23,69.0,61.9,55.0,37.0,29.4,20.0,47,30,18,0.00,40.00,13,6,24,0.00
2013-1-24,60.0,54.9,50.0,51.0,44.3,31.0,88,69,40,0.00,40.00,11,5,18,0.00
2013-1-25,60.0,54.8,51.0,52.0,48.2,44.0,96,79,55,0.00,40.00,14,5,22,0.00
2013-1-26,52.0,49.1,47.0,50.0,47.8,44.0,98,97,77,0.00,40.00,6,3,12,0.00
2013-1-27,47.0,41.8,35.0,46.0,40.7,34.0,99,97,92,0.00,40.00,10,6,19,0.00
2013-1-28,40.0,36.1,34.0,35.0,31.1,23.0,99,83,50,0.00,40.00,12,5,20,0.00
2013-1-29,55.0,40.0,33.0,40.0,30.9,21.0,98,71,47,0.00,40.00,14,3,28,0.00
2013-1-30,58.0,51.1,43.0,41.0,31.7,22.0,78,49,29,0.00,40.00,25,9,43,0.00
2013-1-31,63.0,57.3,51.0,30.0,23.5,16.0,34,27,17,0.00,40.00,28,14,46,0.00
2013-2-1,65.0,57.2,50.0,39.0,24.5,16.0,55,29,18,0.00,40.00,9,6,12,0.00
2013-2-2,68.0,59.7,54.0,39.0,26.8,12.0,48,30,17,0.00,40.00,8,4,11,0.00
2013-2-3,59.0,54.1,48.0,43.0,38.5,29.0,76,56,32,0.00,40.00,7,4,14,0.00
2013-2-4,61.0,53.4,47.0,46.0,37.6,29.0,74,56,38,0.00,40.00,7,5,11,0.00
2013-2-5,60.0,53.2,43.0,47.0,33.1,26.0,97,48,29,0.00,40.00,8,5,13,0.00
2013-2-6,53.0,46.4,35.0,42.0,33.9,21.0,98,65,31,0.00,40.00,8,4,15,0.00
2013-2-7,59.0,48.3,38.0,45.0,32.0,16.0,99,59,20,0.00,40.00,11,6,13,0.00
2013-2-8,37.0,33.5,31.0,37.0,33.4,31.0,100,99,97,0.00,40.00,11,6,28,0.00
2013-2-9,39.0,33.1,30.0,35.0,31.8,30.0,100,95,80,0.00,40.00,8,4,14,0.00
2013-2-10,38.0,34.3,32.0,35.0,31.6,27.0,99,90,72,0.00,40.00,6,3,12,0.00
2013-2-11,44.0,36.8,31.0,34.0,25.0,0.0,96,66,19,0.00,40.00,10,4,18,0.00
2013-2-12,49.0,41.2,34.0,25.0,11.5,2.0,58,30,19,0.00,40.00,10,5,19,0.00
2013-2-13,56.0,47.0,39.0,34.0,17.4,6.0,61,32,18,0.00,40.00,7,4,14,0.00
2013-2-14,61.0,54.3,46.0,24.0,20.6,15.0,38,27,21,0.00,40.00,25,11,42,0.00
2013-2-15,60.0,56.0,52.0,18.0,11.6,1.0,25,17,9,0.00,40.00,36,24,55,0.00
2013-2-16,69.0,59.2,50.0,22.0,8.5,-2.0,30,14,6,0.00,40.00,37,19,54,0.00
2013-2-17,57.0,50.4,44.0,41.0,17.7,10.0,68,29,17,0.00,40.00,10,6,15,0.00
2013-2-18,58.0,47.2,34.0,41.0,25.9,9.0,99,50,19,0.00,40.00,8,4,12,0.00
2013-2-19,37.0,35.1,32.0,37.0,34.3,32.0,100,97,88,0.00,40.00,10,6,28,0.00
2013-2-20,37.0,31.6,29.0,33.0,30.7,24.0,100,97,63,0.00,40.00,14,5,27,0.00
2013-2-21,40.0,35.9,29.0,36.0,30.2,15.0,98,81,35,0.00,40.00,9,4,21,0.00
2013-2-22,51.0,41.4,33.0,31.0,21.2,8.0,69,46,20,0.00,40.00,8,5,14,0.00
2013-2-23,52.0,44.3,36.0,35.0,25.2,13.0,75,48,28,0.00,40.00,10,5,15,0.00
2013-2-24,49.0,42.7,35.0,30.0,6.9,-5.0,70,28,12,0.00,40.00,29,12,43,0.00
2013-2-25,56.0,45.3,37.0,19.0,7.9,-5.0,44,22,11,0.00,40.00,8,5,16,0.00
2013-2-26,58.0,51.3,41.0,12.0,5.9,-7.0,27,16,8,0.00,40.00,20,11,34,0.00
2013-2-27,58.0,52.2,47.0,9.0,3.0,-2.0,16,13,11,0.00,40.00,23,13,36,0.00
2013-2-28,63.0,55.8,51.0,11.0,4.8,-1.0,14,12,11,0.00,40.00,30,17,47,0.00
2013-3-1,66.0,60.8,57.0,15.0,11.6,7.0,17,14,12,0.00,40.00,32,22,53,0.00
2013-3-2,73.0,62.6,53.0,25.0,17.1,8.0,31,18,11,0.00,40.00,9,5,14,0.00
2013-3-3,63.0,55.0,45.0,39.0,22.1,12.0,61,30,17,0.00,40.00,8,5,17,0.00
2013-3-4,57.0,49.1,40.0,44.0,38.9,27.0,98,70,32,0.00,40.00,8,4,13,0.00
2013-3-5,60.0,52.2,42.0,48.0,37.6,25.0,98,61,29,0.00,40.00,12,4,18,0.00
2013-3-6,51.0,43.1,38.0,41.0,39.0,36.0,99,87,63,0.00,40.00,8,3,16,0.00
2013-3-7,45.0,42.0,39.0,43.0,38.0,30.0,98,86,66,0.00,40.00,12,4,18,0.00
2013-3-8,41.0,35.3,32.0,39.0,34.9,32.0,100,98,86,0.00,40.00,13,5,23,0.00
2013-3-9,43.0,37.9,35.0,40.0,37.1,33.0,99,97,77,0.00,40.00,9,5,23,0.00
2013-3-10,59.0,50.4,39.0,39.0,28.6,16.0,89,46,21,0.00,40.00,17,6,28,0.00
2013-3-11,66.0,55.6,46.0,37.0,24.6,10.0,54,32,14,0.00,40.00,10,6,13,0.00
2013-3-12,72.0,61.8,52.0,40.0,23.4,8.0,48,24,11,0.00,40.00,21,9,38,0.00
2013-3-13,77.0,69.2,59.0,40.0,24.6,16.0,41,20,11,0.00,40.00,19,8,30,0.00
2013-3-14,81.0,69.7,62.0,43.0,27.4,17.0,33,21,12,0.00,40.00,17,7,28,0.00
2013-3-15,75.0,66.8,56.0,44.0,32.8,14.0,56,29,18,0.00,40.00,8,5,12,0.00
2013-3-16,67.0,60.1,53.0,46.0,23.9,5.0,69,27,11,0.00,40.00,8,5,13,0.00
2013-3-17,63.0,57.6,51.0,49.0,33.0,19.0,86,41,22,0.00,40.00,9,4,13,0.00
2013-3-18,61.0,54.9,49.0,47.0,31.5,11.0,87,44,15,0.00,40.00,9,4,13,0.00
2013-3-19,64.0,56.9,48.0,47.0,33.2,21.0,79,42,26,0.00,40.00,9,5,19,0.00
2013-3-20,65.0,58.2,48.0,47.0,35.8,28.0,63,44,32,0.00,40.00,9,5,17,0.00
2013-3-21,61.0,54.0,45.0,47.0,40.4,32.0,91,61,42,0.00,40.00,7,4,12,0.00
2013-3-22,61.0,50.2,38.0,49.0,41.4,23.0,98,74,34,0.00,40.00,7,4,15,0.00
2013-3-23,65.0,56.9,46.0,48.0,27.8,0.0,77,37,10,0.00,40.00,9,5,17,0.00
2013-3-24,66.0,57.4,49.0,45.0,37.4,26.0,70,48,24,0.00,40.00,8,5,15,0.00
2013-3-25,70.0,60.2,51.0,46.0,35.3,28.0,63,40,23,0.00,40.00,10,6,15,0.00
2013-3-26,64.0,57.1,50.0,40.0,25.9,1.0,59,31,12,0.00,40.00,10,6,14,0.00
2013-3-27,62.0,54.3,49.0,43.0,28.7,9.0,76,39,18,0.00,40.00,7,4,15,0.00
2013-3-28,66.0,57.8,51.0,45.0,36.6,23.0,65,46,30,0.00,40.00,9,5,18,0.00
2013-3-29,68.0,60.3,51.0,51.0,39.2,24.0,95,48,25,0.00,40.00,8,4,11,0.00
2013-3-30,65.0,57.8,49.0,49.0,39.1,-99.9,86,55,20,0.00,40.00,8,4,17,0.00
2013-3-31,59.0,51.1,45.0,47.0,39.9,21.0,97,68,32,0.00,40.00,10,5,19,0.00
2013-4-1,55.0,46.5,42.0,45.0,41.6,36.0,98,84,58,0.00,40.00,11,5,20,0.00
2013-4-2,61.0,50.6,43.0,49.0,43.6,36.0,98,78,51,0.00,40.00,7,5,13,0.00
2013-4-3,73.0,62.0,51.0,50.0,34.6,26.0,65,37,20,0.00,40.00,9,5,16,0.00
2013-4-4,67.0,59.9,53.0,44.0,34.5,20.0,70,40,20,0.00,40.00,10,5,18,0.00
2013-4-5,60.0,52.3,47.0,50.0,45.0,35.0,97,77,57,0.00,40.00,9,5,18,0.00
2013-4-6,62.0,51.7,42.0,50.0,44.8,35.0,98,79,56,0.00,40.00,7,3,13,0.00
2013-4-7,61.0,55.1,48.0,50.0,43.5,29.0,98,66,33,0.00,40.00,8,4,17,0.00
2013-4-8,50.0,42.1,39.0,46.0,40.6,35.0,99,95,84,0.00,40.00,13,7,28,0.00
2013-4-9,56.0,45.1,37.0,40.0,33.2,21.0,97,66,30,0.00,40.00,9,5,17,0.00
2013-4-10,64.0,56.3,50.0,29.0,19.0,12.0,35,23,13,0.00,40.00,14,7,24,0.00
2013-4-11,68.0,60.2,53.0,46.0,25.7,6.0,74,29,12,0.00,40.00,10,5,15,0.00
2013-4-12,72.0,59.9,48.0,50.0,35.0,23.0,72,40,17,0.00,40.00,10,4,20,0.00
2013-4-13,68.0,61.9,51.0,49.0,35.2,23.0,80,40,21,0.00,40.00,8,5,14,0.00
2013-4-14,55.0,49.1,40.0,46.0,37.5,3.0,98,72,12,0.00,40.00,10,5,16,0.00
2013-4-15,45.0,43.1,40.0,45.0,42.3,39.0,99,98,98,0.00,40.00,9,5,15,0.00
2013-4-16,45.0,38.9,34.0,40.0,36.0,33.0,99,90,67,0.00,40.00,9,5,17,0.00
2013-4-17,58.0,46.3,37.0,37.0,24.9,6.0,96,50,18,0.00,40.00,10,5,21,0.00
2013-4-18,63.0,54.0,47.0,17.0,8.2,0.0,26,16,11,0.00,40.00,24,12,44,0.00
2013-4-19,72.0,60.9,50.0,18.0,8.3,0.0,20,12,9,0.00,40.00,26,11,49,0.00
2013-4-20,78.0,65.5,54.0,31.0,21.0,6.0,35,19,12,0.00,40.00,9,6,17,0.00
2013-4-21,75.0,66.8,58.0,41.0,28.8,15.0,44,24,14,0.00,40.00,9,5,14,0.00
2013-4-22,70.0,60.9,53.0,48.0,30.1,16.0,79,34,17,0.00,40.00,9,5,13,0.00
2013-4-23,72.0,60.1,52.0,49.0,34.3,20.0,77,39,24,0.00,40.00,8,4,12,0.00
2013-4-24,69.0,51.9,44.0,49.0,43.3,27.0,99,78,26,0.00,40.00,8,4,13,0.00
2013-4-25,60.0,47.9,42.0,46.0,43.8,42.0,99,87,56,0.00,40.00,8,4,15,0.00
2013-4-26,71.0,59.9,47.0,48.0,39.1,14.0,89,51,13,0.00,40.00,8,4,13,0.00
2013-4-27,75.0,69.9,62.0,50.0,27.7,11.0,54,22,11,0.00,40.00,8,6,15,0.00
2013-4-28,78.0,72.9,65.0,49.0,27.1,15.0,48,19,12,0.00,40.00,10,6,18,0.00
2013-4-29,76.0,69.6,63.0,48.0,29.9,13.0,44,24,12,0.00,40.00,7,4,12,0.00
2013-4-30,69.0,61.0,47.0,51.0,37.9,2.0,98,51,9,0.00,40.00,10,5,13,0.00
2013-5-1,77.0,61.3,43.0,48.0,31.6,1.0,98,51,7,0.00,40.00,18,8,33,0.00
2013-5-2,76.0,69.8,64.0,7.0,0.4,-8.0,8,6,4,0.00,40.00,29,18,51,0.00
2013-5-3,80.0,70.8,64.0,25.0,9.1,-2.0,16,9,6,0.00,40.00,21,9,36,0.00
2013-5-4,71.0,62.2,52.0,47.0,20.9,6.0,57,24,9,0.00,40.00,9,5,13,0.00
2013-5-5,55.0,50.2,45.0,48.0,37.0,16.0,98,67,21,0.00,40.00,12,6,18,0.00
2013-5-6,50.0,46.8,45.0,50.0,46.2,44.0,99,98,94,0.00,40.00,11,6,20,0.00
2013-5-7,49.0,45.9,43.0,46.0,44.4,41.0,99,95,79,0.00,40.00,10,5,22,0.00
2013-5-8,53.0,46.9,42.0,47.0,43.6,36.0,98,89,73,0.00,40.00,7,3,12,0.00
2013-5-9,59.0,49.4,45.0,52.0,46.4,40.0,98,91,54,0.00,40.00,10,4,18,0.00
2013-5-10,71.0,60.4,47.0,52.0,42.7,-99.9,98,58,29,0.00,40.00,10,5,17,0.00
2013-5-11,82.0,73.4,64.0,45.0,34.2,-99.9,48,26,15,0.00,40.00,11,6,24,0.00
2013-5-12,85.0,77.4,67.0,39.0,30.9,26.0,29,19,12,0.00,40.00,10,6,18,0.00
2013-5-13,86.0,79.1,69.0,42.0,32.6,25.0,32,19,14,0.00,40.00,10,6,19,0.00
2013-5-14,82.0,71.6,58.0,45.0,30.0,11.0,47,23,9,0.00,40.00,8,5,14,0.00
2013-5-15,71.0,63.6,56.0,49.0,32.6,15.0,65,32,18,0.00,40.00,9,6,14,0.00
2013-5-16,70.0,57.7,50.0,50.0,25.0,-99.9,89,49,32,0.00,40.00,11,5,14,0.00
2013-5-17,63.0,54.9,47.0,51.0,42.4,-99.9,98,72,40,0.00,40.00,7,4,15,0.00
2013-5-18,65.0,54.9,47.0,50.0,47.4,43.0,98,78,51,0.00,40.00,7,4,14,0.00
2013-5-19,71.0,61.0,50.0,52.0,46.9,37.0,81,61,45,0.00,40.00,7,4,14,0.00
2013-5-20,79.0,70.9,58.0,52.0,37.1,24.0,70,32,15,0.00,40.00,14,6,25,0.00
2013-5-21,77.0,69.9,60.0,52.0,39.4,24.0,68,34,20,0.00,40.00,11,6,14,0.00
2013-5-22,71.0,61.9,46.0,50.0,34.2,21.0,93,38,20,0.00,40.00,12,6,20,0.00
2013-5-23,63.0,53.5,41.0,47.0,33.5,1.0,97,52,12,0.00,40.00,7,4,14,0.00
2013-5-24,66.0,55.5,42.0,45.0,31.2,-7.0,97,43,9,0.00,40.00,11,4,13,0.00
2013-5-25,65.0,57.5,50.0,48.0,23.5,-9.0,78,32,7,0.00,40.00,11,6,14,0.00
2013-5-26,65.0,56.8,49.0,45.0,28.9,3.0,71,37,13,0.00,40.00,8,5,16,0.00
2013-5-27,68.0,58.5,51.0,50.0,40.2,26.0,84,52,33,0.00,40.00,7,4,14,0.00
2013-5-28,65.0,57.8,51.0,53.0,46.5,39.0,97,67,48,0.00,40.00,9,4,17,0.00
2013-5-29,75.0,66.0,57.0,52.0,43.5,32.0,66,45,33,0.00,40.00,8,4,15,0.00
2013-5-30,75.0,67.7,60.0,51.0,43.1,19.0,65,42,17,0.00,40.00,8,4,14,0.00
2013-5-31,79.0,69.9,61.0,53.0,41.8,25.0,61,37,20,0.00,40.00,8,4,13,0.00
2013-6-1,90.0,80.1,71.0,56.0,37.2,23.0,46,24,9,0.00,40.00,18,8,29,0.00
2013-6-2,80.0,73.6,64.0,54.0,37.2,19.0,70,29,14,0.00,40.00,11,6,14,0.00
2013-6-3,73.0,67.3,57.0,53.0,38.2,14.0,78,37,13,0.00,40.00,11,5,15,0.00
2013-6-4,73.0,64.5,57.0,52.0,33.3,-1.0,75,35,7,0.00,40.00,9,4,13,0.00
2013-6-5,77.0,67.7,60.0,53.0,30.2,5.0,70,29,9,0.00,40.00,7,4,14,0.00
2013-6-6,77.0,68.6,62.0,54.0,41.5,15.0,71,39,13,0.00,40.00,7,4,13,0.00
2013-6-7,78.0,72.0,63.0,54.0,40.7,17.0,60,34,13,0.00,40.00,7,4,12,0.00
2013-6-8,81.0,73.9,66.0,54.0,42.4,23.0,61,34,12,0.00,40.00,8,4,12,0.00
2013-6-9,78.0,74.0,67.0,51.0,28.4,1.0,49,22,6,0.00,40.00,10,5,13,0.00
2013-6-10,76.0,71.7,62.0,50.0,35.2,9.0,63,30,9,0.00,40.00,13,7,21,0.00
2013-6-11,86.0,75.3,67.0,54.0,29.4,12.0,57,21,8,0.00,40.00,10,5,13,0.00
2013-6-12,78.0,71.3,65.0,54.0,44.5,18.0,61,40,15,0.00,40.00,8,5,11,0.00
2013-6-13,78.0,70.7,61.0,52.0,35.6,3.0,60,31,8,0.00,40.00,8,5,14,0.00
2013-6-14,77.0,72.5,63.0,48.0,32.3,-5.0,51,26,5,0.00,40.00,8,5,13,0.00
2013-6-15,75.0,70.1,61.0,49.0,25.3,-18.0,61,24,3,0.00,40.00,11,5,14,0.00
2013-6-16,77.0,69.4,59.0,49.0,28.0,-11.0,59,26,5,0.00,40.00,8,5,12,0.00
2013-6-17,79.0,72.4,63.0,49.0,37.0,20.0,52,28,17,0.00,40.00,7,4,17,0.00
2013-6-18,77.0,71.1,62.0,51.0,37.1,18.0,60,31,13,0.00,40.00,8,5,14,0.00
2013-6-19,77.0,70.0,59.0,48.0,30.3,5.0,59,26,9,0.00,40.00,8,5,15,0.00
2013-6-20,77.0,69.3,61.0,44.0,29.7,8.0,52,23,11,0.00,40.00,6,4,13,0.00
2013-6-21,75.0,72.5,70.0,45.0,41.2,35.0,37,33,23,0.00,40.00,7,6,14,0.00
2013-6-22,77.0,71.8,62.0,48.0,39.4,23.0,56,32,18,0.00,40.00,7,4,15,0.00
2013-6-23,72.0,65.7,58.0,51.0,40.6,30.0,70,41,25,0.00,40.00,9,5,15,0.00
2013-6-24,69.0,63.8,57.0,53.0,44.7,28.0,84,52,27,0.00,40.00,8,5,16,0.00
2013-6-25,76.0,65.8,56.0,56.0,50.5,41.0,80,59,38,0.00,40.00,7,4,14,0.00
2013-6-26,84.0,78.1,67.0,54.0,51.7,49.0,57,40,32,0.00,40.00,6,5,14,0.00
2013-6-27,88.0,79.7,70.0,52.0,49.7,46.0,51,36,28,0.00,40.00,7,5,15,0.00
2013-6-28,90.0,84.8,75.0,49.0,45.6,35.0,36,26,19,0.00,40.00,8,5,16,0.00
2013-6-29,95.0,91.1,81.0,48.0,40.6,32.0,26,18,12,0.00,40.00,9,6,15,0.00
2013-6-30,96.0,89.2,82.0,55.0,43.7,30.0,35,22,12,0.00,40.00,10,4,12,0.00
2013-7-1,89.0,83.4,78.0,54.0,46.2,40.0,42,28,21,0.00,40.00,9,5,14,0.00
2013-7-2,88.0,82.8,77.0,57.0,45.1,36.0,43,28,18,0.00,40.00,9,5,16,0.00
2013-7-3,87.0,82.1,75.0,51.0,42.9,35.0,42,26,20,0.00,40.00,8,6,13,0.00
2013-7-4,87.0,82.0,73.0,54.0,43.1,32.0,49,27,17,0.00,40.00,9,5,16,0.00
2013-7-5,84.0,78.4,72.0,56.0,47.0,37.0,56,34,20,0.00,40.00,7,5,15,0.00
2013-7-6,83.0,75.3,69.0,58.0,52.5,46.0,67,46,34,0.00,40.00,7,4,14,0.00
2013-7-7,87.0,81.1,69.0,53.0,47.0,35.0,56,31,20,0.00,40.00,8,5,15,0.00
2013-7-8,91.0,87.1,82.0,46.0,39.0,31.0,25,19,15,0.00,40.00,8,5,15,0.00
2013-7-9,89.0,84.0,74.0,55.0,44.8,29.0,46,28,12,0.00,40.00,7,4,13,0.00
2013-7-10,80.0,72.1,67.0,56.0,47.9,-99.9,65,46,31,0.00,40.00,5,2,10,0.00
2013-7-11,74.0,69.0,65.0,60.0,55.4,44.0,77,62,38,0.00,40.00,5,3,11,0.00
2013-7-12,80.0,72.3,64.0,59.0,55.9,52.0,78,57,44,0.00,40.00,7,4,14,0.00
2013-7-13,82.0,75.8,67.0,54.0,50.4,42.0,58,41,31,0.00,40.00,8,4,14,0.00
2013-7-14,86.0,78.4,71.0,53.0,46.6,40.0,51,33,24,0.00,40.00,7,4,14,0.00
2013-7-15,83.0,76.9,71.0,48.0,43.2,35.0,38,30,22,0.00,40.00,9,5,17,0.00
2013-7-16,83.0,76.6,67.0,42.0,29.8,20.0,29,19,11,0.00,40.00,7,5,13,0.00
2013-7-17,85.0,78.3,67.0,41.0,24.1,4.0,32,15,6,0.00,40.00,7,5,14,0.00
2013-7-18,86.0,79.1,71.0,47.0,39.6,27.0,37,25,17,0.00,40.00,7,4,13,0.00
2013-7-19,87.0,82.0,73.0,54.0,38.2,18.0,50,24,9,0.00,40.00,6,4,12,0.00
2013-7-20,80.0,73.9,71.0,59.0,50.7,-99.9,59,47,12,0.00,40.00,7,3,9,0.00
2013-7-21,76.0,70.4,64.0,66.0,59.1,51.0,96,69,48,0.00,40.00,11,3,24,0.00
2013-7-22,75.0,68.8,64.0,66.0,61.7,58.0,92,79,59,0.00,40.00,6,3,14,0.00
2013-7-23,80.0,71.1,65.0,61.0,58.8,51.0,86,66,48,0.00,40.00,7,4,15,0.00
2013-7-24,82.0,74.7,68.0,58.0,55.6,50.0,67,52,41,0.00,40.00,10,4,19,0.00
2013-7-25,84.0,78.7,72.0,55.0,50.0,43.0,48,37,29,0.00,40.00,7,4,13,0.00
2013-7-26,83.0,76.2,73.0,56.0,51.0,46.0,51,42,31,0.00,40.00,6,3,11,0.00
2013-7-27,81.0,75.3,70.0,54.0,49.0,44.0,55,40,32,0.00,40.00,7,4,13,0.00
2013-7-28,80.0,74.5,67.0,51.0,39.0,25.0,53,29,15,0.00,40.00,8,5,16,0.00
2013-7-29,79.0,71.7,65.0,52.0,43.3,35.0,57,37,26,0.00,40.00,7,5,15,0.00
2013-7-30,78.0,70.7,63.0,54.0,47.5,36.0,64,44,32,0.00,40.00,7,4,13,0.00
2013-7-31,79.0,71.3,64.0,55.0,50.0,44.0,67,48,33,0.00,40.00,6,4,15,0.00
2013-8-1,82.0,73.7,62.0,51.0,41.6,-3.0,64,37,4,0.00,40.00,10,5,18,0.00
2013-8-2,79.0,74.9,67.0,51.0,38.7,15.0,54,30,11,0.00,40.00,7,5,14,0.00
2013-8-3,78.0,73.1,65.0,51.0,39.3,12.0,58,32,12,0.00,40.00,7,4,14,0.00
2013-8-17,88.0,74.1,74.0,50.0,31.3,-99.9,36,25,24,0.00,40.00,6,5,13,0.00
2013-8-18,89.0,84.1,76.0,50.0,47.1,42.0,30,28,24,0.00,40.00,12,6,21,0.00
2013-8-19,83.0,52.0,73.0,52.0,-2.1,-99.9,42,30,27,0.00,40.00,5,4,10,0.00
2013-8-20,86.0,76.0,71.0,51.0,27.3,-99.9,50,22,6,0.00,40.00,8,5,14,0.00
2013-8-21,89.0,79.8,74.0,43.0,33.5,24.0,26,19,13,0.00,40.00,7,5,15,0.00
2013-8-22,88.0,83.5,77.0,46.0,39.5,34.0,34,21,18,0.00,40.00,8,6,18,0.00
2013-8-23,88.0,83.4,77.0,44.0,40.5,39.0,28,22,18,0.00,40.00,7,5,16,0.00
2013-11-13,79.0,72.9,66.0,29.0,25.5,22.0,25,17,14,0.00,40.00,15,7,26,0.00
2013-11-14,76.0,71.7,69.0,30.0,22.2,18.0,20,16,13,0.00,40.00,13,9,23,0.00
2013-11-15,57.0,49.6,46.0,47.0,42.4,29.0,96,82,34,0.00,40.00,9,6,14,0.00
2013-11-16,46.0,35.6,43.0,44.0,14.4,-99.9,99,75,91,0.00,40.00,7,4,9,0.00
2013-11-17,55.0,46.1,41.0,45.0,39.6,37.0,88,78,62,0.00,40.00,5,3,10,0.00
2013-11-18,56.0,49.7,43.0,47.0,44.0,40.0,100,82,68,0.00,40.00,6,4,10,0.00
2013-11-19,50.0,47.1,45.0,47.0,45.7,43.0,100,95,80,0.00,40.00,5,4,8,0.00
2013-12-26,58.0,56.7,55.0,3.0,2.0,1.0,11,11,10,0.00,40.00,30,25,45,0.00
2013-12-27,65.0,63.5,62.0,13.0,8.0,3.0,13,11,9,0.00,40.00,26,14,39,0.00
2013-12-28,60.0,45.6,56.0,13.0,-11.0,-99.9,18,13,15,0.00,40.00,7,5,9,0.00
2013-12-30,52.0,51.0,50.0,-9.0,-9.5,-10.0,8,8,7,0.00,40.00,7,6,9,0.00
2013-12-31,64.0,57.8,53.0,14.0,7.0,-4.0,21,14,9,0.00,40.00,7,4,8,0.00
2014-1-1,66.0,60.7,53.0,13.0,9.8,7.0,15,13,11,0.00,40.00,17,6,31,0.00